createdAt,value
2022-12-12T00:01:51.151Z,10.23
2022-12-12T00:06:52.635Z,10.13
2022-12-12T00:11:54.119Z,8.73
2022-12-12T00:16:55.612Z,9.33
2022-12-12T00:21:57.095Z,9.97
2022-12-12T00:26:58.584Z,11.47
2022-12-12T00:32:00.092Z,10.63
2022-12-12T00:37:01.513Z,9.07
2022-12-12T00:42:03.218Z,10.57
2022-12-12T00:47:04.798Z,11.47
2022-12-12T00:52:06.268Z,9.27
2022-12-12T00:57:08.871Z,13.90
2022-12-12T01:02:10.489Z,10.27
2022-12-12T01:07:11.992Z,8.70
2022-12-12T01:12:13.431Z,9.27
2022-12-12T01:17:14.931Z,12.27
2022-12-12T01:22:16.493Z,12.47
2022-12-12T01:27:17.995Z,9.13
2022-12-12T01:32:19.423Z,8.73
2022-12-12T01:37:21.175Z,11.57
2022-12-12T01:42:22.652Z,8.43
2022-12-12T01:47:24.919Z,9.07
2022-12-12T01:52:38.444Z,10.37
2022-12-12T01:57:44.612Z,10.20
2022-12-12T02:02:47.076Z,8.03
2022-12-12T02:07:48.626Z,10.57
2022-12-12T02:12:50.284Z,12.03
2022-12-12T02:18:03.828Z,10.03
2022-12-12T02:23:17.644Z,9.63
2022-12-12T02:28:46.818Z,8.73
2022-12-12T02:34:00.788Z,8.80
2022-12-12T02:39:08.269Z,11.60
2022-12-12T02:44:21.870Z,8.80
2022-12-12T02:49:38.852Z,10.03
2022-12-12T02:54:40.277Z,9.20
2022-12-12T02:59:45.098Z,10.57
2022-12-12T03:05:23.788Z,9.30
2022-12-12T03:10:52.905Z,7.07
2022-12-12T03:16:16.112Z,9.50
2022-12-12T03:21:39.429Z,9.90
2022-12-12T03:26:54.888Z,10.13
2022-12-12T03:32:03.418Z,11.67
2022-12-12T03:37:19.558Z,9.30
2022-12-12T03:42:23.812Z,11.20
2022-12-12T03:47:39.437Z,10.13
2022-12-12T03:52:45.575Z,8.20
2022-12-12T03:58:32.371Z,9.70
2022-12-12T04:03:49.025Z,9.37
2022-12-12T04:08:52.035Z,9.93
2022-12-12T04:14:07.994Z,13.20
2022-12-12T04:19:19.619Z,10.57
2022-12-12T04:24:34.742Z,12.47
2022-12-12T04:29:39.020Z,11.77
2022-12-12T04:35:14.953Z,11.23
2022-12-12T04:40:24.732Z,13.33
2022-12-12T04:45:34.308Z,12.10
2022-12-12T04:50:37.833Z,16.92
2022-12-12T04:55:44.368Z,11.40
2022-12-12T05:00:51.339Z,12.33
2022-12-12T05:06:09.022Z,13.67
2022-12-12T05:11:12.057Z,12.07
2022-12-12T05:16:29.099Z,12.37
2022-12-12T05:21:30.847Z,16.57
2022-12-12T05:26:34.381Z,17.37
2022-12-12T05:31:36.182Z,12.40
2022-12-12T05:36:37.677Z,9.40
2022-12-12T05:41:39.140Z,13.03
2022-12-12T05:46:40.568Z,12.30
2022-12-12T05:51:42.007Z,11.53
2022-12-12T05:56:43.428Z,12.87
2022-12-12T06:01:44.980Z,13.87
2022-12-12T06:06:46.535Z,13.93
2022-12-12T06:11:48.009Z,11.97
2022-12-12T06:16:49.504Z,11.87
2022-12-12T06:21:51.025Z,16.23
2022-12-12T06:26:53.041Z,13.30
2022-12-12T06:31:54.621Z,13.97
2022-12-12T06:36:56.109Z,11.97
2022-12-12T06:41:57.574Z,14.60
2022-12-12T06:46:59.088Z,12.60
2022-12-12T06:52:00.592Z,10.70
2022-12-12T06:57:02.091Z,12.10
2022-12-12T07:02:04.087Z,12.70
2022-12-12T07:07:05.755Z,13.10
2022-12-12T07:12:07.288Z,11.27
2022-12-12T07:17:08.780Z,10.80
2022-12-12T07:22:10.819Z,12.03
2022-12-12T07:27:16.970Z,16.23
2022-12-12T07:32:22.728Z,14.68
2022-12-12T07:37:24.243Z,11.83
2022-12-12T07:42:25.768Z,12.37
2022-12-12T07:47:27.248Z,14.97
2022-12-12T07:52:28.751Z,12.10
2022-12-12T07:57:30.783Z,13.20
2022-12-12T08:02:32.274Z,9.60
2022-12-12T08:07:33.804Z,13.17
2022-12-12T08:12:35.356Z,14.90
2022-12-12T08:17:36.833Z,11.90
2022-12-12T08:22:38.311Z,16.47
2022-12-12T08:27:39.831Z,12.30
2022-12-12T08:32:41.317Z,10.07
2022-12-12T08:37:42.785Z,16.07
2022-12-12T08:42:44.291Z,16.13
2022-12-12T08:47:45.832Z,13.37
2022-12-12T08:52:47.324Z,15.90
2022-12-12T08:57:48.820Z,13.60
2022-12-12T09:02:50.330Z,14.57
2022-12-12T09:07:52.102Z,11.87
2022-12-12T09:12:54.833Z,13.73
2022-12-12T09:17:56.340Z,12.00
2022-12-12T09:22:57.793Z,17.33
2022-12-12T09:27:59.249Z,15.90
2022-12-12T09:33:00.703Z,14.00
2022-12-12T09:38:02.462Z,17.00
2022-12-12T09:43:04.171Z,15.33
2022-12-12T09:48:07.298Z,13.73
2022-12-12T09:53:15.326Z,14.43
2022-12-12T09:58:51.385Z,13.57
2022-12-12T10:04:31.120Z,15.73
2022-12-12T10:09:50.861Z,15.17
2022-12-12T10:14:59.674Z,12.93
2022-12-12T10:20:27.522Z,12.70
2022-12-12T10:25:41.469Z,15.17
2022-12-12T10:30:55.283Z,12.03
2022-12-12T10:36:11.856Z,17.87
2022-12-12T10:41:42.722Z,17.40
2022-12-12T10:46:59.638Z,18.38
2022-12-12T10:52:06.772Z,19.48
2022-12-12T10:57:19.964Z,17.08
2022-12-12T11:02:37.003Z,17.45
2022-12-12T11:07:44.908Z,18.55
2022-12-12T11:12:54.960Z,17.97
2022-12-12T11:18:01.251Z,16.40
2022-12-12T11:23:18.497Z,18.65
2022-12-12T11:28:23.908Z,19.08
2022-12-12T11:33:45.117Z,14.95
2022-12-12T11:38:55.869Z,19.75
2022-12-12T11:43:59.273Z,16.15
2022-12-12T11:49:04.411Z,17.90
2022-12-12T11:54:13.323Z,13.73
2022-12-12T11:59:23.684Z,12.67
2022-12-12T12:04:45.902Z,14.63
2022-12-12T12:09:57.154Z,16.95
2022-12-12T12:15:18.351Z,12.68
2022-12-12T12:20:31.177Z,12.43
2022-12-12T12:25:40.965Z,12.40
2022-12-12T12:36:19.376Z,16.90
2022-12-12T12:41:33.984Z,15.30
2022-12-12T12:47:14.548Z,14.98
2022-12-12T12:52:38.783Z,13.70
2022-12-12T12:57:44.590Z,17.98
2022-12-12T13:02:50.214Z,14.65
2022-12-12T13:07:59.989Z,14.95
2022-12-12T13:18:14.355Z,17.83
2022-12-12T13:23:38.092Z,15.05
2022-12-12T13:28:51.435Z,15.98
2022-12-12T13:34:04.906Z,15.60
2022-12-12T13:39:08.263Z,13.95
2022-12-12T13:44:33.996Z,16.27
2022-12-12T13:49:54.041Z,17.08
2022-12-12T13:55:15.405Z,15.82
2022-12-12T14:00:18.283Z,14.77
2022-12-12T14:05:24.222Z,16.98
2022-12-12T14:10:34.182Z,14.82
2022-12-12T14:15:36.205Z,15.38
2022-12-12T14:20:41.833Z,12.00
2022-12-12T14:25:43.367Z,14.75
2022-12-12T14:30:47.882Z,14.73
2022-12-12T14:36:04.506Z,16.38
2022-12-12T14:41:13.995Z,15.57
2022-12-12T14:46:17.411Z,14.63
2022-12-12T14:51:28.951Z,14.20
2022-12-12T14:56:40.523Z,13.98
2022-12-12T15:01:51.282Z,16.00
2022-12-12T15:06:54.443Z,15.23
2022-12-12T15:12:05.138Z,13.93
2022-12-12T15:17:12.196Z,15.65
2022-12-12T15:22:29.194Z,18.33
2022-12-12T15:27:47.040Z,14.55
2022-12-12T15:32:51.179Z,17.38
2022-12-12T15:38:00.601Z,15.00
2022-12-12T15:43:10.911Z,13.27
2022-12-12T15:48:17.332Z,14.68
2022-12-12T22:11:40.369Z,14.83
2022-12-12T22:17:10.759Z,17.23
2022-12-12T22:22:12.319Z,14.07
2022-12-12T22:27:13.912Z,13.30
2022-12-12T22:32:15.498Z,13.20
2022-12-12T22:37:17.098Z,14.40
2022-12-12T22:42:18.649Z,12.17
2022-12-12T22:47:20.138Z,11.93
2022-12-12T22:52:21.644Z,16.17
2022-12-12T22:57:23.139Z,13.10
2022-12-12T23:02:25.268Z,11.50
2022-12-12T23:07:27.006Z,12.00
2022-12-12T23:12:28.743Z,11.37
2022-12-12T23:17:30.354Z,14.90
2022-12-12T23:22:32.187Z,13.40
2022-12-12T23:27:34.094Z,14.67
2022-12-12T23:32:36.256Z,13.50
2022-12-12T23:37:38.349Z,13.07
2022-12-12T23:42:41.799Z,12.30
2022-12-12T23:47:43.551Z,13.63
2022-12-12T23:52:45.449Z,15.53
2022-12-12T23:57:47.384Z,12.07
